Time;durP1;ratioP1;P1;durP2;ratioP2;P2;SDS_P1;SDS_P2;PMS_P1;PMS_P2;Temp;Humidity;BMP_temperature;BMP_pressure;BME280_temperature;BME280_humidity;BME280_pressure;Samples;Min_cycle;Max_cycle;Signal;HPM_P1;HPM_P2
2022/10/22 00:00:32;;;;;;;34.78;23.38;;;10.50;99.90;;;;;;5084273;28;20228;-77
2022/10/22 00:03:22;;;;;;;36.60;24.48;;;10.50;99.90;;;;;;5092330;28;20219;-77
2022/10/22 00:06:11;;;;;;;37.33;22.35;;;10.50;99.90;;;;;;5096260;28;20220;-77
2022/10/22 00:09:00;;;;;;;33.00;23.90;;;10.60;99.90;;;;;;5081137;28;20217;-75
2022/10/22 00:11:54;;;;;;;31.13;22.58;;;10.70;99.90;;;;;;5064401;28;20254;-77
2022/10/22 00:14:43;;;;;;;34.95;24.60;;;10.70;99.90;;;;;;5080531;28;20699;-78
2022/10/22 00:17:32;;;;;;;33.80;21.95;;;10.70;99.90;;;;;;5065567;28;20216;-77
2022/10/22 00:20:21;;;;;;;34.40;22.75;;;10.70;99.90;;;;;;5070094;28;20980;-77
2022/10/22 00:23:10;;;;;;;31.27;21.13;;;10.70;99.90;;;;;;5084311;28;20227;-77
2022/10/22 00:25:58;;;;;;;31.80;22.17;;;10.60;99.90;;;;;;5080297;28;20235;-78
2022/10/22 00:28:49;;;;;;;32.47;21.20;;;10.60;99.90;;;;;;5061575;28;20265;-78
2022/10/22 00:31:37;;;;;;;38.92;22.73;;;10.60;99.90;;;;;;5056201;28;20251;-77
2022/10/22 00:34:30;;;;;;;37.10;23.00;;;10.70;99.90;;;;;;5065657;28;20239;-77
2022/10/22 00:37:19;;;;;;;31.92;20.95;;;10.70;99.90;;;;;;5065760;28;20323;-77
2022/10/22 00:40:09;;;;;;;32.78;22.55;;;10.70;99.90;;;;;;5061001;28;20227;-76
2022/10/22 00:42:58;;;;;;;33.58;21.48;;;10.70;99.90;;;;;;5048457;28;20220;-75
2022/10/22 00:45:52;;;;;;;29.23;21.42;;;10.80;99.90;;;;;;5042753;28;20224;-77
2022/10/22 00:48:40;;;;;;;32.17;22.40;;;10.80;99.90;;;;;;5064703;28;20216;-77
2022/10/22 00:51:33;;;;;;;32.22;21.95;;;10.90;99.90;;;;;;5063791;28;20247;-75
2022/10/22 00:54:22;;;;;;;32.42;21.77;;;10.90;99.90;;;;;;5073141;28;20224;-73
2022/10/22 00:57:11;;;;;;;33.70;22.75;;;10.90;99.90;;;;;;5050469;28;20216;-76
2022/10/22 01:00:00;;;;;;;32.17;21.40;;;11.00;99.90;;;;;;5054916;28;20235;-76
2022/10/22 01:02:52;;;;;;;34.63;22.33;;;10.90;99.90;;;;;;5051835;28;20227;-76
2022/10/22 01:05:46;;;;;;;29.42;21.33;;;11.00;99.90;;;;;;5057062;28;20216;-75
2022/10/22 01:08:43;;;;;;;29.50;20.65;;;10.90;99.90;;;;;;5055956;28;20259;-76
2022/10/22 01:11:40;;;;;;;32.00;22.42;;;10.90;99.90;;;;;;5062252;28;20322;-76
2022/10/22 01:14:36;;;;;;;28.73;20.40;;;10.90;99.90;;;;;;5062169;28;20242;-77
2022/10/22 01:17:32;;;;;;;32.65;21.02;;;11.00;99.90;;;;;;5062154;28;21292;-77
2022/10/22 01:20:47;;;;;;;30.00;20.98;;;11.00;99.90;;;;;;5065040;28;20266;-77
2022/10/22 01:24:15;;;;;;;29.17;20.52;;;11.00;99.90;;;;;;5063977;28;20223;-76
2022/10/22 01:27:15;;;;;;;29.30;21.13;;;10.90;99.90;;;;;;5052357;28;20544;-76
2022/10/22 01:30:07;;;;;;;29.58;20.35;;;10.90;99.90;;;;;;5064608;28;20229;-77
2022/10/22 01:33:01;;;;;;;37.30;21.95;;;10.90;99.90;;;;;;5066922;28;20208;-77
2022/10/22 01:35:51;;;;;;;32.90;21.50;;;11.00;99.90;;;;;;5053416;28;20221;-78
2022/10/22 01:38:41;;;;;;;31.77;20.92;;;11.00;99.90;;;;;;5050435;28;20237;-77
2022/10/22 01:41:30;;;;;;;30.23;21.02;;;11.00;99.90;;;;;;5053733;28;20231;-77
2022/10/22 01:44:28;;;;;;;30.23;21.30;;;11.10;99.90;;;;;;5066005;28;20228;-77
2022/10/22 01:47:30;;;;;;;32.83;21.25;;;11.10;99.90;;;;;;5035705;28;20286;-77
2022/10/22 01:50:39;;;;;;;31.77;20.95;;;11.00;99.90;;;;;;5053785;28;20270;-77
2022/10/22 01:53:37;;;;;;;29.73;21.20;;;11.00;99.90;;;;;;5065357;28;20702;-76
2022/10/22 01:56:36;;;;;;;29.65;21.52;;;11.00;99.90;;;;;;5060118;28;20304;-75
2022/10/22 01:59:33;;;;;;;34.78;21.85;;;10.90;99.90;;;;;;5052963;28;21733;-77
2022/10/22 02:02:33;;;;;;;31.52;22.02;;;10.90;99.90;;;;;;5050915;28;20230;-77
2022/10/22 02:05:27;;;;;;;29.33;21.38;;;11.00;99.90;;;;;;5063930;28;20263;-78
2022/10/22 02:08:20;;;;;;;32.03;22.83;;;11.00;99.90;;;;;;5072743;28;20236;-77
2022/10/22 02:11:09;;;;;;;35.30;22.15;;;10.90;99.90;;;;;;5041856;28;20232;-77
2022/10/22 02:14:03;;;;;;;30.75;22.38;;;10.90;99.90;;;;;;5052430;28;20315;-77
2022/10/22 02:16:51;;;;;;;30.77;21.98;;;10.90;99.90;;;;;;5061790;28;20269;-77
2022/10/22 02:19:46;;;;;;;34.55;22.20;;;11.00;99.90;;;;;;5057354;28;20750;-78
2022/10/22 02:22:36;;;;;;;33.30;21.95;;;11.00;99.90;;;;;;5074012;28;20231;-77
2022/10/22 02:25:32;;;;;;;29.15;22.05;;;11.10;99.90;;;;;;5072898;28;20237;-76
2022/10/22 02:28:29;;;;;;;31.88;22.67;;;11.10;99.90;;;;;;5051131;28;20219;-77
2022/10/22 02:31:24;;;;;;;35.80;23.40;;;11.00;99.90;;;;;;5077965;28;20697;-75
2022/10/22 02:34:19;;;;;;;29.92;22.67;;;11.00;99.90;;;;;;5079602;28;20725;-76
2022/10/22 02:37:10;;;;;;;33.17;23.15;;;10.90;99.90;;;;;;5071676;28;20227;-74
2022/10/22 02:39:58;;;;;;;33.30;22.58;;;11.00;99.90;;;;;;5086398;28;20239;-76
2022/10/22 02:42:49;;;;;;;31.42;23.27;;;11.00;99.90;;;;;;5085325;28;20702;-76
2022/10/22 02:45:38;;;;;;;34.53;23.10;;;11.00;99.90;;;;;;5090908;28;20223;-76
2022/10/22 02:48:27;;;;;;;33.92;23.15;;;11.10;99.90;;;;;;5080821;28;20224;-76
2022/10/22 02:51:16;;;;;;;29.52;22.13;;;11.10;99.90;;;;;;5084061;28;20715;-76
2022/10/22 02:54:06;;;;;;;33.53;23.08;;;11.10;99.90;;;;;;5081192;28;20223;-76
2022/10/22 02:56:55;;;;;;;33.72;23.30;;;11.00;99.90;;;;;;5082183;28;20219;-78
2022/10/22 02:59:43;;;;;;;31.33;22.27;;;11.00;99.90;;;;;;5084062;28;20223;-77
2022/10/22 03:02:32;;;;;;;28.65;22.92;;;11.00;99.90;;;;;;5095110;28;20235;-77
2022/10/22 03:05:21;;;;;;;33.20;23.38;;;11.00;99.90;;;;;;5097889;28;20218;-76
2022/10/22 03:08:09;;;;;;;29.42;22.25;;;11.00;99.90;;;;;;5085743;28;20737;-78
2022/10/22 03:10:59;;;;;;;32.45;22.60;;;11.00;99.90;;;;;;5064963;28;20220;-78
2022/10/22 03:13:48;;;;;;;32.95;22.58;;;11.00;99.90;;;;;;5075990;28;20235;-78
2022/10/22 03:16:37;;;;;;;34.00;23.17;;;11.00;99.90;;;;;;5078540;28;20231;-78
2022/10/22 03:19:26;;;;;;;30.95;22.50;;;11.00;99.90;;;;;;5087987;28;21015;-75
2022/10/22 03:22:20;;;;;;;29.15;22.58;;;10.90;99.90;;;;;;5078401;28;20221;-76
2022/10/22 03:25:13;;;;;;;32.20;22.85;;;10.90;99.90;;;;;;5076853;28;20787;-76
2022/10/22 03:28:09;;;;;;;30.92;22.15;;;11.00;99.90;;;;;;5067258;28;20720;-77
2022/10/22 03:30:58;;;;;;;30.60;22.48;;;11.00;99.90;;;;;;5062233;28;20711;-76
2022/10/22 03:33:46;;;;;;;33.05;22.17;;;11.00;99.90;;;;;;5095711;28;20219;-75
2022/10/22 03:36:35;;;;;;;31.00;22.73;;;11.00;99.90;;;;;;5057988;28;20250;-76
2022/10/22 03:39:24;;;;;;;29.83;22.13;;;10.90;99.90;;;;;;5081570;28;20242;-76
2022/10/22 03:42:13;;;;;;;33.28;22.95;;;11.00;99.90;;;;;;5068511;28;20768;-76
2022/10/22 03:45:04;;;;;;;30.45;21.83;;;11.10;99.90;;;;;;5084916;28;20219;-76
2022/10/22 03:47:52;;;;;;;33.80;22.83;;;11.10;99.90;;;;;;5080264;28;20238;-76
2022/10/22 03:50:41;;;;;;;28.67;22.80;;;11.00;99.90;;;;;;5078867;28;20234;-77
2022/10/22 03:53:30;;;;;;;27.73;21.17;;;11.10;99.90;;;;;;5088536;28;20215;-76
2022/10/22 03:56:18;;;;;;;30.13;22.98;;;11.10;99.90;;;;;;5094601;28;20757;-77
2022/10/22 03:59:07;;;;;;;28.85;22.38;;;11.10;99.90;;;;;;5089399;28;20215;-76
2022/10/22 04:01:57;;;;;;;29.63;21.20;;;11.10;99.90;;;;;;5065972;28;20230;-77
2022/10/22 04:04:46;;;;;;;29.50;21.83;;;11.20;99.90;;;;;;5079377;28;20603;-77
2022/10/22 04:07:35;;;;;;;27.77;20.95;;;11.10;99.90;;;;;;5072416;28;20310;-76
2022/10/22 04:10:23;;;;;;;31.88;22.23;;;11.10;99.90;;;;;;5090032;28;20219;-76
2022/10/22 04:13:12;;;;;;;28.45;21.98;;;11.10;99.90;;;;;;5090240;28;20219;-76
2022/10/22 04:16:08;;;;;;;30.02;21.02;;;11.10;99.90;;;;;;5057158;28;20722;-77
2022/10/22 04:18:58;;;;;;;28.58;21.80;;;11.10;99.90;;;;;;5089491;28;20227;-76
2022/10/22 04:21:47;;;;;;;27.50;20.58;;;11.10;99.90;;;;;;5087060;28;20242;-77
2022/10/22 04:24:35;;;;;;;29.30;21.35;;;11.10;99.90;;;;;;5078952;28;20223;-76
2022/10/22 04:27:24;;;;;;;29.48;20.58;;;11.10;99.90;;;;;;5071605;28;20686;-76
2022/10/22 04:30:14;;;;;;;30.48;22.08;;;11.20;99.90;;;;;;5086695;28;20302;-76
2022/10/22 04:33:03;;;;;;;26.73;20.67;;;11.20;99.90;;;;;;5073318;28;20234;-77
2022/10/22 04:35:53;;;;;;;26.70;20.75;;;11.20;99.90;;;;;;5083574;28;20594;-76
2022/10/22 04:38:42;;;;;;;26.67;20.45;;;11.20;99.90;;;;;;5077612;28;20234;-77
2022/10/22 04:41:34;;;;;;;28.20;20.90;;;11.20;99.90;;;;;;5081172;28;20249;-77
2022/10/22 04:44:22;;;;;;;25.90;20.30;;;11.20;99.90;;;;;;5068561;28;20231;-76
2022/10/22 04:47:11;;;;;;;31.95;21.88;;;11.20;99.90;;;;;;5083948;28;20225;-77
2022/10/22 04:50:00;;;;;;;28.15;20.38;;;11.20;99.90;;;;;;5065387;28;20728;-76
2022/10/22 04:52:50;;;;;;;27.77;20.05;;;11.20;99.90;;;;;;5093899;28;20357;-77
2022/10/22 04:55:38;;;;;;;29.77;19.58;;;11.20;99.90;;;;;;5078529;28;20567;-78
2022/10/22 04:58:27;;;;;;;29.00;19.90;;;11.10;99.90;;;;;;5084605;28;20266;-76
2022/10/22 05:01:18;;;;;;;28.23;19.92;;;11.10;99.90;;;;;;5092214;28;20806;-78
2022/10/22 05:04:08;;;;;;;26.45;20.13;;;11.20;99.90;;;;;;5070650;28;20227;-78
2022/10/22 05:06:57;;;;;;;30.40;19.92;;;11.20;99.90;;;;;;5074587;28;20223;-76
2022/10/22 05:09:47;;;;;;;25.65;19.73;;;11.10;99.90;;;;;;5089857;28;20753;-76
2022/10/22 05:12:36;;;;;;;27.60;19.95;;;11.20;99.90;;;;;;5084973;28;20230;-76
2022/10/22 05:15:24;;;;;;;30.77;20.42;;;11.20;99.90;;;;;;5084789;28;21008;-76
2022/10/22 05:18:13;;;;;;;26.85;20.45;;;11.20;99.90;;;;;;5073530;28;20234;-75
2022/10/22 05:21:09;;;;;;;29.67;21.52;;;11.20;99.90;;;;;;5084723;28;20223;-76
2022/10/22 05:23:59;;;;;;;28.42;21.02;;;11.10;99.90;;;;;;5064360;28;20228;-76
2022/10/22 05:26:50;;;;;;;24.85;19.63;;;11.10;99.90;;;;;;5074011;28;20231;-77
2022/10/22 05:29:39;;;;;;;27.75;20.10;;;11.10;99.90;;;;;;5084796;28;20685;-77
2022/10/22 05:32:28;;;;;;;26.45;19.80;;;11.20;99.90;;;;;;5082920;28;20650;-76
2022/10/22 05:35:16;;;;;;;28.98;20.73;;;11.20;99.90;;;;;;5077190;28;20224;-75
2022/10/22 05:38:05;;;;;;;27.60;20.45;;;11.20;99.90;;;;;;5069024;28;20216;-75
2022/10/22 05:41:00;;;;;;;30.92;20.70;;;11.30;99.90;;;;;;5067374;28;20301;-76
2022/10/22 05:43:51;;;;;;;27.55;20.20;;;11.40;99.90;;;;;;5084592;28;20223;-77
2022/10/22 05:46:42;;;;;;;28.88;20.92;;;11.40;99.90;;;;;;5077854;28;20220;-77
2022/10/22 05:49:30;;;;;;;29.75;20.58;;;11.40;99.90;;;;;;5094924;28;20295;-77
2022/10/22 05:52:19;;;;;;;26.42;20.15;;;11.40;99.90;;;;;;5087658;28;20224;-76
2022/10/22 05:55:11;;;;;;;30.70;21.48;;;11.50;99.90;;;;;;5072538;28;20239;-76
2022/10/22 05:58:00;;;;;;;26.42;20.15;;;11.60;99.90;;;;;;5077489;28;20215;-76
2022/10/22 06:00:50;;;;;;;29.33;21.27;;;11.60;99.90;;;;;;5081023;28;20239;-77
2022/10/22 06:03:39;;;;;;;32.35;21.73;;;11.60;99.90;;;;;;5085528;28;20234;-80
2022/10/22 06:06:31;;;;;;;32.30;20.48;;;11.60;99.90;;;;;;5083720;28;20246;-78
2022/10/22 06:09:23;;;;;;;30.48;21.20;;;11.70;99.90;;;;;;5083496;28;20215;-78
2022/10/22 06:12:12;;;;;;;31.40;20.20;;;11.60;99.90;;;;;;5077926;28;20374;-78
2022/10/22 06:15:01;;;;;;;32.67;20.35;;;11.60;99.90;;;;;;5091865;28;20571;-77
2022/10/22 06:17:51;;;;;;;32.40;21.25;;;11.70;99.90;;;;;;5072601;28;20224;-77
2022/10/22 06:20:42;;;;;;;30.63;20.95;;;11.60;99.90;;;;;;5071467;28;20219;-78
2022/10/22 06:23:30;;;;;;;30.40;20.95;;;11.70;99.90;;;;;;5081971;28;20610;-75
2022/10/22 06:26:19;;;;;;;29.00;20.27;;;11.70;99.90;;;;;;5081681;28;20702;-76
2022/10/22 06:29:08;;;;;;;27.60;20.33;;;11.70;99.90;;;;;;5085162;28;20284;-77
2022/10/22 06:31:56;;;;;;;30.30;20.90;;;11.70;99.90;;;;;;5067069;28;20224;-76
2022/10/22 06:34:47;;;;;;;34.45;20.65;;;11.60;99.90;;;;;;5075377;28;20247;-76
2022/10/22 06:37:36;;;;;;;34.80;23.27;;;11.70;99.90;;;;;;5082147;28;20234;-78
2022/10/22 06:40:25;;;;;;;31.65;20.83;;;11.70;99.90;;;;;;5078439;28;20226;-77
2022/10/22 06:43:14;;;;;;;28.80;19.80;;;11.70;99.90;;;;;;5069236;28;20243;-77
2022/10/22 06:46:06;;;;;;;30.58;21.35;;;11.80;99.90;;;;;;5076059;28;21003;-76
2022/10/22 06:48:57;;;;;;;31.45;20.67;;;11.80;99.90;;;;;;5092945;28;20238;-77
2022/10/22 06:51:54;;;;;;;26.13;20.23;;;11.80;99.90;;;;;;5073716;28;20256;-78
2022/10/22 06:54:43;;;;;;;26.75;19.83;;;11.80;99.90;;;;;;5083052;28;20913;-77
2022/10/22 06:57:32;;;;;;;28.45;21.02;;;11.80;99.90;;;;;;5080602;28;20234;-77
2022/10/22 07:00:21;;;;;;;30.75;20.00;;;11.90;99.90;;;;;;5079485;28;20219;-77
2022/10/22 07:03:12;;;;;;;26.83;20.10;;;11.90;99.90;;;;;;5082617;28;20231;-77
2022/10/22 07:06:01;;;;;;;26.67;19.83;;;11.90;99.90;;;;;;5090252;28;20336;-76
2022/10/22 07:08:53;;;;;;;26.50;19.55;;;11.90;99.90;;;;;;5084729;28;20223;-78
2022/10/22 07:11:44;;;;;;;27.05;18.92;;;11.90;99.90;;;;;;5085186;28;20215;-78
2022/10/22 07:14:33;;;;;;;27.17;19.13;;;11.90;99.90;;;;;;5070743;28;20219;-78
2022/10/22 07:17:21;;;;;;;27.00;19.20;;;11.80;99.90;;;;;;5085365;28;20281;-78
2022/10/22 07:20:11;;;;;;;26.75;19.15;;;11.80;99.90;;;;;;5096281;28;20229;-78
2022/10/22 07:23:00;;;;;;;32.05;20.27;;;11.80;99.90;;;;;;5069547;28;20212;-76
2022/10/22 07:25:50;;;;;;;28.10;20.00;;;11.80;99.90;;;;;;5074867;28;20238;-78
2022/10/22 07:28:39;;;;;;;30.05;19.27;;;11.80;99.90;;;;;;5088532;28;20219;-77
2022/10/22 07:31:28;;;;;;;28.38;19.33;;;11.90;99.90;;;;;;5086908;28;20680;-77
2022/10/22 07:34:18;;;;;;;25.75;18.92;;;11.90;99.90;;;;;;5090630;28;20219;-78
2022/10/22 07:37:11;;;;;;;27.52;19.75;;;11.90;99.90;;;;;;5083391;28;20220;-77
2022/10/22 07:39:59;;;;;;;25.75;19.50;;;11.90;99.90;;;;;;5077634;28;20607;-77
2022/10/22 07:42:56;;;;;;;26.52;19.17;;;11.90;99.90;;;;;;5092274;28;21499;-75
2022/10/22 07:45:45;;;;;;;40.42;27.38;;;12.00;99.90;;;;;;5095952;28;20245;-79
2022/10/22 07:48:35;;;;;;;31.17;20.67;;;12.00;99.90;;;;;;5084745;28;20231;-78
2022/10/22 07:51:24;;;;;;;28.98;19.77;;;12.10;99.90;;;;;;5066189;28;20231;-78
2022/10/22 07:54:12;;;;;;;30.52;20.05;;;12.20;99.90;;;;;;5084166;28;20215;-77
2022/10/22 07:57:01;;;;;;;28.98;19.90;;;12.20;99.90;;;;;;5083190;28;20710;-77
2022/10/22 07:59:51;;;;;;;29.08;19.73;;;12.20;99.90;;;;;;5071699;28;20231;-78
2022/10/22 08:02:40;;;;;;;32.90;19.98;;;12.30;99.90;;;;;;5081300;28;20224;-77
2022/10/22 08:05:29;;;;;;;27.92;19.95;;;12.20;99.90;;;;;;5085309;28;20231;-76
2022/10/22 08:08:17;;;;;;;25.08;19.85;;;12.20;99.90;;;;;;5081028;28;20216;-76
2022/10/22 08:11:07;;;;;;;26.98;19.33;;;12.30;99.90;;;;;;5075556;28;20222;-76
2022/10/22 08:13:56;;;;;;;29.05;20.10;;;12.40;99.90;;;;;;5073660;28;20255;-76
2022/10/22 08:16:46;;;;;;;26.38;19.52;;;12.40;99.90;;;;;;5075131;28;20281;-76
2022/10/22 08:19:35;;;;;;;25.77;19.70;;;12.40;99.90;;;;;;5084336;28;20691;-75
2022/10/22 08:22:24;;;;;;;28.17;19.25;;;12.40;99.90;;;;;;5090238;28;20321;-73
2022/10/22 08:25:14;;;;;;;26.75;19.67;;;12.40;99.90;;;;;;5064678;28;20240;-74
2022/10/22 08:28:02;;;;;;;28.33;19.20;;;12.40;99.90;;;;;;5090832;28;20246;-76
2022/10/22 08:30:55;;;;;;;26.83;19.30;;;12.40;99.90;;;;;;5070705;28;20235;-77
2022/10/22 08:33:45;;;;;;;28.42;19.83;;;12.40;99.90;;;;;;5077486;28;20235;-76
2022/10/22 08:36:33;;;;;;;25.65;19.17;;;12.50;99.90;;;;;;5080660;28;20230;-76
2022/10/22 08:39:23;;;;;;;26.20;18.65;;;12.50;99.90;;;;;;5078438;28;20306;-76
2022/10/22 08:42:53;;;;;;;27.13;19.25;;;12.40;99.90;;;;;;5092296;28;20230;-77
2022/10/22 08:45:52;;;;;;;27.42;18.67;;;12.40;99.90;;;;;;5087311;28;20249;-76
2022/10/22 08:48:45;;;;;;;25.27;19.08;;;12.40;99.90;;;;;;5087457;28;20629;-77
2022/10/22 08:51:39;;;;;;;26.40;20.40;;;12.50;99.90;;;;;;5081151;28;20220;-77
2022/10/22 08:54:36;;;;;;;26.73;20.40;;;12.50;99.90;;;;;;5077886;28;20223;-77
2022/10/22 08:57:46;;;;;;;27.15;19.23;;;12.60;99.90;;;;;;5084365;28;23090;-77
2022/10/22 09:00:45;;;;;;;25.60;19.10;;;12.50;99.90;;;;;;5071927;28;20222;-77
2022/10/22 09:03:42;;;;;;;28.67;19.52;;;12.60;99.90;;;;;;5089757;28;20257;-75
2022/10/22 09:06:35;;;;;;;25.52;19.98;;;12.70;99.90;;;;;;5079848;28;20234;-76
2022/10/22 09:09:27;;;;;;;27.13;19.08;;;12.70;99.90;;;;;;5084584;28;20298;-74
2022/10/22 09:12:17;;;;;;;27.38;18.92;;;12.70;99.90;;;;;;5079506;28;20807;-77
2022/10/22 09:15:13;;;;;;;25.17;18.63;;;12.70;99.90;;;;;;5082185;28;20787;-76
2022/10/22 09:18:18;;;;;;;26.83;19.42;;;12.70;99.90;;;;;;5079735;28;20229;-77
2022/10/22 09:21:20;;;;;;;26.95;19.55;;;12.70;99.90;;;;;;5076780;28;20696;-76
2022/10/22 09:24:13;;;;;;;26.52;19.20;;;12.80;99.90;;;;;;5088055;28;20234;-77
2022/10/22 09:27:02;;;;;;;31.20;19.35;;;12.90;99.90;;;;;;5085733;28;20631;-76
2022/10/22 09:29:51;;;;;;;32.40;20.95;;;13.00;99.90;;;;;;5074073;28;20773;-77
2022/10/22 09:32:40;;;;;;;30.08;20.15;;;13.10;99.90;;;;;;5086882;28;20226;-78
2022/10/22 09:35:34;;;;;;;31.75;20.88;;;13.10;99.90;;;;;;5094604;27;20230;-77
2022/10/22 09:38:26;;;;;;;31.42;19.80;;;13.10;99.90;;;;;;5083647;28;20219;-76
2022/10/22 09:41:18;;;;;;;30.23;20.48;;;13.20;99.90;;;;;;5078115;28;20215;-76
2022/10/22 09:44:09;;;;;;;34.63;21.00;;;13.20;99.90;;;;;;5099750;28;20254;-76
2022/10/22 09:46:57;;;;;;;33.80;22.75;;;13.20;99.90;;;;;;5084364;28;20587;-77
2022/10/22 09:49:46;;;;;;;35.85;24.52;;;13.30;99.90;;;;;;5079700;28;20290;-77
2022/10/22 09:52:35;;;;;;;32.10;22.95;;;13.30;99.90;;;;;;5100385;28;20233;-77
2022/10/22 09:55:26;;;;;;;34.70;23.55;;;13.40;99.90;;;;;;5090849;28;20229;-76
2022/10/22 09:58:19;;;;;;;34.30;23.33;;;13.50;99.90;;;;;;5100805;28;20223;-77
2022/10/22 10:01:07;;;;;;;37.28;23.90;;;13.50;99.90;;;;;;5080586;28;20804;-76
2022/10/22 10:04:03;;;;;;;37.78;23.88;;;13.50;99.90;;;;;;5077126;28;20215;-77
2022/10/22 10:06:57;;;;;;;39.08;23.65;;;13.50;99.90;;;;;;5069898;28;20540;-78
2022/10/22 10:09:45;;;;;;;36.20;24.02;;;13.50;99.90;;;;;;5071605;28;20619;-76
2022/10/22 10:12:42;;;;;;;40.97;24.85;;;13.50;99.90;;;;;;5076355;28;20721;-77
2022/10/22 10:15:40;;;;;;;38.00;23.42;;;13.60;99.90;;;;;;5084409;28;20617;-77
2022/10/22 10:18:42;;;;;;;39.70;25.45;;;13.60;99.90;;;;;;5069922;28;20232;-76
2022/10/22 10:21:38;;;;;;;40.75;25.67;;;13.60;99.90;;;;;;5078918;28;21033;-76
2022/10/22 10:24:40;;;;;;;44.63;25.83;;;13.50;99.90;;;;;;5084239;28;20586;-76
2022/10/22 10:27:35;;;;;;;36.42;24.10;;;13.60;99.90;;;;;;5080872;28;20231;-77
2022/10/22 10:30:26;;;;;;;39.67;25.25;;;13.60;99.90;;;;;;5089334;28;20255;-79
2022/10/22 10:33:27;;;;;;;40.55;24.88;;;13.60;99.90;;;;;;5085730;28;20228;-76
2022/10/22 10:36:25;;;;;;;38.33;24.88;;;13.50;99.90;;;;;;5088349;28;20238;-78
2022/10/22 10:39:22;;;;;;;37.35;25.00;;;13.60;99.90;;;;;;5082242;28;20223;-78
2022/10/22 10:42:22;;;;;;;37.58;23.58;;;13.50;99.90;;;;;;5077704;28;20224;-75
2022/10/22 10:45:17;;;;;;;32.38;23.23;;;13.50;99.90;;;;;;5083448;28;20227;-75
2022/10/22 10:48:16;;;;;;;32.40;23.20;;;13.50;99.90;;;;;;5086911;28;20216;-76
2022/10/22 10:51:19;;;;;;;28.08;21.90;;;13.50;99.90;;;;;;5090718;28;20238;-75
2022/10/22 10:54:22;;;;;;;34.60;23.98;;;13.50;99.90;;;;;;5095273;28;20230;-76
2022/10/22 10:57:20;;;;;;;34.78;23.35;;;13.50;99.90;;;;;;5091739;28;20246;-75
2022/10/22 11:00:14;;;;;;;32.20;23.05;;;13.50;99.90;;;;;;5095035;28;20319;-76
2022/10/22 11:03:41;;;;;;;35.08;21.80;;;13.50;99.90;;;;;;5076499;28;20804;-75
2022/10/22 11:06:34;;;;;;;35.85;23.60;;;13.50;99.90;;;;;;5091468;28;20231;-76
2022/10/22 11:09:27;;;;;;;36.42;24.33;;;13.50;99.90;;;;;;5075897;28;20219;-76
2022/10/22 11:12:22;;;;;;;35.40;23.58;;;13.50;99.90;;;;;;5062132;28;20220;-74
2022/10/22 11:15:26;;;;;;;34.47;24.02;;;13.50;99.90;;;;;;5091045;28;20219;-76
2022/10/22 11:18:20;;;;;;;38.70;25.00;;;13.50;99.90;;;;;;5078059;28;20290;-76
2022/10/22 11:21:21;;;;;;;36.08;24.27;;;13.60;99.90;;;;;;5091379;28;20599;-77
2022/10/22 11:24:19;;;;;;;47.50;28.63;;;13.50;99.90;;;;;;5095957;28;20527;-77
2022/10/22 11:27:18;;;;;;;37.65;25.02;;;13.50;99.90;;;;;;5082665;28;20745;-76
2022/10/22 11:30:13;;;;;;;37.60;23.58;;;13.60;99.90;;;;;;5086561;28;20243;-76
2022/10/22 11:33:05;;;;;;;40.42;24.48;;;13.60;99.90;;;;;;5083252;28;20226;-78
2022/10/22 11:35:55;;;;;;;38.28;25.02;;;13.70;99.90;;;;;;5084978;28;20264;-77
2022/10/22 11:38:44;;;;;;;36.90;24.95;;;13.70;99.90;;;;;;5076385;28;20227;-78
2022/10/22 11:41:36;;;;;;;37.90;25.30;;;13.60;99.90;;;;;;5061696;28;20942;-78
2022/10/22 11:44:24;;;;;;;39.80;24.85;;;13.70;99.90;;;;;;5075537;28;20334;-78
2022/10/22 11:47:19;;;;;;;38.00;24.15;;;13.70;99.90;;;;;;5079419;28;20223;-77
2022/10/22 11:50:24;;;;;;;43.78;25.23;;;13.70;99.90;;;;;;5084523;28;20238;-77
2022/10/22 11:53:21;;;;;;;40.50;24.88;;;13.80;99.90;;;;;;5072228;28;20301;-78
2022/10/22 11:56:24;;;;;;;40.72;24.88;;;13.80;99.90;;;;;;5081722;28;20334;-78
2022/10/22 11:59:41;;;;;;;38.42;25.15;;;13.70;99.90;;;;;;5090014;28;20719;-78
2022/10/22 12:02:43;;;;;;;37.75;25.33;;;13.80;99.90;;;;;;5081533;28;20785;-78
2022/10/22 12:05:36;;;;;;;42.05;25.63;;;13.80;99.90;;;;;;5102824;28;20272;-78
2022/10/22 12:08:26;;;;;;;41.80;28.92;;;13.80;99.90;;;;;;5078832;28;20223;-78
2022/10/22 12:11:20;;;;;;;46.88;31.13;;;13.90;99.90;;;;;;5084163;28;20224;-78
2022/10/22 12:14:25;;;;;;;41.15;26.98;;;13.90;99.90;;;;;;5076817;28;20230;-78
2022/10/22 12:17:15;;;;;;;37.70;25.05;;;13.90;99.90;;;;;;5076335;28;20281;-78
2022/10/22 12:20:13;;;;;;;42.45;26.00;;;14.00;99.90;;;;;;5085579;28;20697;-78
2022/10/22 12:23:02;;;;;;;38.05;24.63;;;14.00;99.90;;;;;;5081662;28;20231;-78
2022/10/22 12:25:50;;;;;;;36.65;24.67;;;13.90;99.90;;;;;;5082076;28;20236;-78
2022/10/22 12:28:40;;;;;;;32.67;23.85;;;14.00;99.90;;;;;;5079655;28;20232;-82
2022/10/22 12:31:36;;;;;;;38.60;23.60;;;14.00;99.90;;;;;;5082974;28;20243;-77
2022/10/22 12:34:25;;;;;;;39.03;24.42;;;14.10;99.90;;;;;;5083613;28;20226;-77
2022/10/22 12:37:15;;;;;;;37.47;25.08;;;14.10;99.90;;;;;;5090805;28;20230;-77
2022/10/22 12:40:17;;;;;;;34.53;24.38;;;14.00;99.90;;;;;;5072197;28;20219;-78
2022/10/22 12:43:12;;;;;;;36.65;24.65;;;14.10;99.90;;;;;;5082755;28;20222;-75
2022/10/22 12:46:00;;;;;;;39.10;24.52;;;13.90;99.90;;;;;;5083210;28;20689;-76
2022/10/22 12:48:51;;;;;;;33.40;23.52;;;13.90;99.90;;;;;;5058075;28;20238;-76
2022/10/22 12:51:39;;;;;;;38.40;24.67;;;13.90;99.90;;;;;;5095637;28;20216;-76
2022/10/22 12:54:31;;;;;;;37.97;24.70;;;13.90;99.90;;;;;;5088560;28;20227;-76
2022/10/22 12:57:23;;;;;;;36.58;24.20;;;13.90;99.90;;;;;;5094270;28;20234;-76
2022/10/22 13:00:24;;;;;;;34.95;22.75;;;13.90;99.90;;;;;;5090126;28;20226;-76
2022/10/22 13:03:25;;;;;;;36.53;25.83;;;13.90;99.90;;;;;;5053098;28;20933;-77
2022/10/22 13:06:25;;;;;;;39.60;25.42;;;13.90;99.90;;;;;;5082222;28;20238;-75
2022/10/22 13:09:18;;;;;;;42.05;24.48;;;13.90;99.90;;;;;;5076176;28;20865;-76
2022/10/22 13:12:15;;;;;;;38.97;25.17;;;13.90;99.90;;;;;;5086506;28;20685;-76
2022/10/22 13:15:20;;;;;;;40.85;24.58;;;13.90;99.90;;;;;;5088195;28;20223;-76
2022/10/22 13:18:18;;;;;;;42.42;24.58;;;13.90;99.90;;;;;;5082462;28;20227;-76
2022/10/22 13:21:25;;;;;;;39.58;25.33;;;13.90;99.90;;;;;;5090578;28;20238;-76
2022/10/22 13:24:22;;;;;;;40.65;26.48;;;14.00;99.90;;;;;;5083047;28;20219;-77
2022/10/22 13:27:11;;;;;;;42.25;25.70;;;14.00;99.90;;;;;;5070540;28;20226;-77
2022/10/22 13:30:09;;;;;;;40.70;25.60;;;14.00;99.90;;;;;;5069837;28;20310;-77
2022/10/22 13:33:00;;;;;;;41.05;26.40;;;14.00;99.90;;;;;;5090772;28;20741;-77
2022/10/22 13:35:49;;;;;;;42.55;25.85;;;14.00;99.90;;;;;;5100624;28;20223;-76
2022/10/22 13:38:39;;;;;;;44.15;26.33;;;14.00;99.90;;;;;;5070291;28;20224;-78
2022/10/22 13:41:31;;;;;;;41.35;27.00;;;14.00;99.90;;;;;;5075967;28;20543;-77
2022/10/22 13:44:20;;;;;;;39.22;26.60;;;14.00;99.90;;;;;;5069986;28;20520;-77
2022/10/22 13:47:17;;;;;;;41.25;26.45;;;14.00;99.90;;;;;;5071726;28;20269;-76
2022/10/22 13:50:13;;;;;;;42.40;26.48;;;14.00;99.90;;;;;;5080161;28;20235;-76
2022/10/22 13:53:02;;;;;;;41.10;27.25;;;14.00;99.90;;;;;;5080779;28;20240;-77
2022/10/22 13:55:52;;;;;;;42.95;26.80;;;14.00;99.90;;;;;;5081809;28;20717;-78
2022/10/22 13:58:42;;;;;;;42.50;27.35;;;14.00;99.90;;;;;;5068679;28;20212;-82
2022/10/22 14:01:31;;;;;;;44.33;26.88;;;14.00;99.90;;;;;;5075904;28;20231;-78
2022/10/22 14:04:19;;;;;;;42.38;26.60;;;14.00;99.90;;;;;;5073713;28;20220;-77
2022/10/22 14:07:12;;;;;;;43.47;27.50;;;14.00;99.90;;;;;;5085164;28;20243;-78
2022/10/22 14:10:01;;;;;;;40.35;27.58;;;14.00;99.90;;;;;;5086033;28;20230;-78
2022/10/22 14:12:52;;;;;;;43.10;27.65;;;14.00;99.90;;;;;;5079511;28;20300;-77
2022/10/22 14:15:42;;;;;;;42.60;27.48;;;14.00;99.90;;;;;;5071142;28;20308;-78
2022/10/22 14:18:32;;;;;;;42.13;26.98;;;14.00;99.90;;;;;;5073527;28;20211;-77
2022/10/22 14:21:20;;;;;;;42.90;27.50;;;14.10;99.90;;;;;;5087639;28;20872;-76
2022/10/22 14:24:10;;;;;;;41.95;26.60;;;14.00;99.90;;;;;;5104081;28;20269;-76
2022/10/22 14:27:01;;;;;;;44.95;27.85;;;14.00;99.90;;;;;;5080663;28;20372;-76
2022/10/22 14:29:51;;;;;;;44.08;28.05;;;14.10;99.90;;;;;;5090346;28;20238;-77
2022/10/22 14:32:45;;;;;;;44.63;28.08;;;14.00;99.90;;;;;;5097723;28;20223;-75
2022/10/22 14:35:33;;;;;;;45.97;28.00;;;14.00;99.90;;;;;;5088370;28;20698;-77